Time;durP1;ratioP1;P1;durP2;ratioP2;P2;SDS_P1;SDS_P2;PMS_P1;PMS_P2;Temp;Humidity;BMP_temperature;BMP_pressure;BME280_temperature;BME280_humidity;BME280_pressure;Samples;Min_cycle;Max_cycle;Signal;HPM_P1;HPM_P2
2022/12/18 00:01:58;;;;;;;32.90;18.00;;;;;;;-8.29;80.81;102262.43;105683;1285;72673;-75
2022/12/18 00:04:26;;;;;;;36.90;19.20;;;;;;;-8.30;81.08;102267.41;105652;1291;61549;-75
2022/12/18 00:06:53;;;;;;;35.40;19.60;;;;;;;-8.31;81.14;102272.05;105712;1292;60110;-75
2022/12/18 00:09:20;;;;;;;42.00;20.20;;;;;;;-8.33;80.84;102275.35;105619;1291;73905;-75
2022/12/18 00:11:50;;;;;;;43.10;20.10;;;;;;;-8.36;80.97;102272.45;105681;1287;71196;-75
2022/12/18 00:14:16;;;;;;;36.90;19.40;;;;;;;-8.38;81.10;102270.24;105674;1286;72762;-75
2022/12/18 00:16:46;;;;;;;40.20;19.30;;;;;;;-8.41;81.25;102273.89;105691;1284;59242;-75
2022/12/18 00:19:14;;;;;;;39.10;20.00;;;;;;;-8.43;81.16;102275.47;105670;1290;60257;-75
2022/12/18 00:21:41;;;;;;;38.00;18.20;;;;;;;-8.46;81.20;102276.52;105620;1283;73099;-75
2022/12/18 00:24:09;;;;;;;38.40;19.70;;;;;;;-8.47;81.28;102280.84;105717;1290;70881;-75
2022/12/18 00:26:37;;;;;;;36.90;19.10;;;;;;;-8.49;81.08;102283.42;105665;1284;72652;-75
2022/12/18 00:29:13;;;;;;;33.80;17.80;;;;;;;-8.53;81.01;102286.20;105704;1286;62698;-75
2022/12/18 00:31:41;;;;;;;38.40;20.10;;;;;;;-8.54;81.36;102287.75;105755;1293;58943;-75
2022/12/18 00:34:12;;;;;;;34.20;18.10;;;;;;;-8.53;81.28;102285.68;105605;1286;73849;-75
2022/12/18 00:36:40;;;;;;;30.80;16.80;;;;;;;-8.52;81.78;102284.13;105632;1294;68771;-75
2022/12/18 00:39:07;;;;;;;32.10;16.10;;;;;;;-8.52;81.84;102284.98;105515;1296;72503;-75
2022/12/18 00:44:19;;;;;;;28.50;15.40;;;;;;;-8.53;81.61;102288.77;105855;1291;59019;-75
2022/12/18 00:46:47;;;;;;;40.10;19.00;;;;;;;-8.54;81.51;102289.97;105706;1290;73252;-75
2022/12/18 00:49:17;;;;;;;41.50;19.50;;;;;;;-8.55;81.35;102289.48;105641;1293;71036;-75
2022/12/18 00:51:45;;;;;;;36.20;19.10;;;;;;;-8.55;81.53;102298.73;105583;1291;72465;-75
2022/12/18 00:54:12;;;;;;;38.00;18.90;;;;;;;-8.59;81.40;102300.65;105604;1286;60859;-75
2022/12/18 00:56:39;;;;;;;49.60;23.00;;;;;;;-8.60;81.34;102304.45;105605;1294;59406;-75
2022/12/18 00:59:14;;;;;;;50.40;23.00;;;;;;;-8.60;81.40;102310.27;105665;1292;74905;-75
2022/12/18 01:01:40;;;;;;;40.20;20.10;;;;;;;-8.61;81.89;102305.83;105627;1289;70857;-75
2022/12/18 01:04:07;;;;;;;32.10;17.70;;;;;;;-8.64;81.82;102307.89;105639;1286;70814;-75
2022/12/18 01:06:34;;;;;;;35.60;17.00;;;;;;;-8.65;81.26;102309.12;105799;1290;59264;-75
2022/12/18 01:09:01;;;;;;;28.70;15.40;;;;;;;-8.67;81.53;102307.59;105669;1290;59324;-75
2022/12/18 01:11:30;;;;;;;24.20;13.30;;;;;;;-8.67;81.69;102308.61;105748;1291;73185;-75
2022/12/18 01:13:59;;;;;;;28.30;15.50;;;;;;;-8.67;81.77;102305.87;105726;1297;70859;-75
2022/12/18 01:16:26;;;;;;;27.00;14.20;;;;;;;-8.69;81.71;102305.54;105779;1283;73519;-75
2022/12/18 01:18:54;;;;;;;22.00;12.40;;;;;;;-8.70;81.87;102296.11;105649;1292;61393;-75
2022/12/18 01:21:22;;;;;;;22.20;13.00;;;;;;;-8.69;82.61;102292.85;105801;1280;58936;-75
2022/12/18 01:23:54;;;;;;;23.40;11.60;;;;;;;-8.68;82.75;102293.54;105591;1291;72699;-75
2022/12/18 01:26:21;;;;;;;21.00;11.80;;;;;;;-8.65;83.04;102299.67;105762;1289;68718;-75
2022/12/18 01:28:48;;;;;;;21.20;12.10;;;;;;;-8.60;83.25;102302.89;105632;1285;72456;-75
2022/12/18 01:31:21;;;;;;;24.40;13.00;;;;;;;-8.55;83.05;102305.94;105662;1291;60615;-75
2022/12/18 01:33:48;;;;;;;23.40;13.60;;;;;;;-8.55;82.80;102303.52;105594;1293;58944;-75
2022/12/18 01:36:22;;;;;;;28.20;16.00;;;;;;;-8.54;82.84;102310.23;105711;1291;74496;-74
2022/12/18 01:38:49;;;;;;;21.90;12.70;;;;;;;-8.52;83.15;102308.83;105785;1290;71123;-73
2022/12/18 01:41:19;;;;;;;20.90;12.50;;;;;;;-8.48;83.30;102308.81;105806;1291;72847;-74
2022/12/18 01:43:57;;;;;;;20.40;11.40;;;;;;;-8.43;83.45;102308.23;105718;1290;60738;-75
2022/12/18 01:46:25;;;;;;;22.50;12.10;;;;;;;-8.39;83.63;102308.52;105705;1290;60816;-74
2022/12/18 01:49:00;;;;;;;18.50;10.80;;;;;;;-8.37;83.69;102310.22;105698;1290;75203;-74
2022/12/18 01:51:30;;;;;;;17.50;10.90;;;;;;;-8.37;83.52;102307.13;105665;1289;69697;-75
2022/12/18 01:53:58;;;;;;;16.70;10.60;;;;;;;-8.36;83.41;102308.48;105771;1290;71440;-74
2022/12/18 01:56:24;;;;;;;20.70;12.70;;;;;;;-8.35;83.47;102313.46;105811;1274;60718;-74
2022/12/18 01:59:08;;;;;;;19.10;11.70;;;;;;;-8.33;83.19;102314.98;105657;1290;59036;-74
2022/12/18 02:01:37;;;;;;;21.30;11.20;;;;;;;-8.33;83.37;102320.30;105609;1289;74939;-74
2022/12/18 02:04:26;;;;;;;18.00;10.80;;;;;;;-8.34;83.16;102323.39;105657;1292;70613;-74
2022/12/18 02:06:59;;;;;;;19.80;11.10;;;;;;;-8.34;83.48;102325.11;105673;1288;70607;-75
2022/12/18 02:09:37;;;;;;;21.00;11.70;;;;;;;-8.33;83.02;102317.73;105697;1290;61810;-74
2022/12/18 02:12:29;;;;;;;20.60;10.90;;;;;;;-8.35;82.95;102316.36;105641;1294;58970;-74
2022/12/18 02:15:16;;;;;;;16.90;10.00;;;;;;;-8.39;82.75;102321.39;105773;1291;73274;-74
2022/12/18 02:17:50;;;;;;;18.20;10.30;;;;;;;-8.42;82.76;102322.64;105539;1292;238981;-74
2022/12/18 02:20:42;;;;;;;17.10;9.60;;;;;;;-8.42;83.02;102325.04;105619;1286;72655;-74
2022/12/18 02:23:38;;;;;;;19.70;9.80;;;;;;;-8.41;83.17;102324.02;105814;1289;61773;-74
2022/12/18 02:26:19;;;;;;;16.80;9.50;;;;;;;-8.40;83.10;102326.19;105794;1292;59176;-74
2022/12/18 02:28:56;;;;;;;20.60;10.80;;;;;;;-8.41;83.27;102328.78;105661;1290;72162;-74
2022/12/18 02:31:27;;;;;;;15.30;9.60;;;;;;;-8.40;83.49;102326.04;105744;1290;69761;-74
2022/12/18 02:34:02;;;;;;;16.80;8.90;;;;;;;-8.40;82.96;102321.73;105639;1289;71957;-74
2022/12/18 02:36:32;;;;;;;15.10;9.60;;;;;;;-8.41;82.94;102315.24;105729;1284;59565;-74
2022/12/18 02:39:00;;;;;;;15.30;9.40;;;;;;;-8.45;82.53;102311.52;105713;1291;60178;-74
2022/12/18 02:41:29;;;;;;;16.40;10.40;;;;;;;-8.49;82.46;102308.12;105668;1292;73843;-74
2022/12/18 02:43:58;;;;;;;15.90;9.20;;;;;;;-8.52;82.76;102305.57;105645;1290;69551;-74
2022/12/18 02:46:27;;;;;;;18.00;9.80;;;;;;;-8.52;82.95;102306.60;105708;1292;71514;-74
2022/12/18 02:49:02;;;;;;;17.10;10.10;;;;;;;-8.51;83.28;102305.73;105784;1291;61127;-74
2022/12/18 02:51:38;;;;;;;16.50;9.90;;;;;;;-8.52;83.21;102302.48;105700;1292;59250;-74
2022/12/18 02:54:37;;;;;;;15.50;9.10;;;;;;;-8.53;83.09;102306.94;105700;1289;74915;-74
2022/12/18 02:57:14;;;;;;;19.60;9.90;;;;;;;-8.55;82.94;102302.17;105701;1290;70024;-74
2022/12/18 02:59:54;;;;;;;17.20;9.90;;;;;;;-8.56;83.21;102304.92;105765;1284;71092;-74
2022/12/18 03:02:44;;;;;;;17.10;9.70;;;;;;;-8.56;83.60;102297.36;105713;1291;61281;-74
2022/12/18 03:05:22;;;;;;;16.20;9.90;;;;;;;-8.54;83.80;102298.55;105800;1297;59848;-74
2022/12/18 03:08:01;;;;;;;17.70;10.10;;;;;;;-8.49;84.04;102306.92;105685;1291;73508;-74
2022/12/18 03:10:32;;;;;;;18.10;9.70;;;;;;;-8.44;84.10;102308.08;105810;1291;71385;-74
2022/12/18 03:13:04;;;;;;;16.70;9.80;;;;;;;-8.40;84.13;102306.30;105761;1291;73520;-74
2022/12/18 03:15:36;;;;;;;18.00;9.80;;;;;;;-8.35;84.48;102300.94;105779;1290;62056;-74
2022/12/18 03:18:10;;;;;;;17.20;9.90;;;;;;;-8.33;84.00;102300.39;105684;1286;60213;-74
2022/12/18 03:20:39;;;;;;;16.10;9.00;;;;;;;-8.30;84.02;102296.92;105639;1290;74597;-74
2022/12/18 03:23:14;;;;;;;14.80;9.00;;;;;;;-8.29;84.24;102299.66;105697;1292;69702;-74
2022/12/18 03:25:43;;;;;;;14.00;9.30;;;;;;;-8.27;84.26;102299.48;105628;1290;73005;-74
2022/12/18 03:28:14;;;;;;;17.10;9.20;;;;;;;-8.27;84.07;102290.90;105795;1290;60227;-75
2022/12/18 03:30:44;;;;;;;16.70;9.20;;;;;;;-8.26;84.44;102293.46;105542;1293;60107;-74
2022/12/18 03:33:19;;;;;;;15.00;9.00;;;;;;;-8.25;84.40;102293.96;105646;1291;73431;-74
2022/12/18 03:35:46;;;;;;;14.70;8.50;;;;;;;-8.20;84.51;102294.95;105745;1284;69844;-74
2022/12/18 03:38:13;;;;;;;17.10;9.50;;;;;;;-8.16;84.48;102291.83;105670;1291;70225;-75
2022/12/18 03:40:42;;;;;;;15.80;9.50;;;;;;;-8.12;84.78;102289.90;105761;1290;60427;-74
2022/12/18 03:43:34;;;;;;;16.70;8.90;;;;;;;-8.10;84.88;102291.77;105773;1284;60169;-74
2022/12/18 03:46:11;;;;;;;14.70;8.80;;;;;;;-8.08;84.32;102296.02;105616;1299;74767;-74
2022/12/18 03:48:44;;;;;;;15.30;8.70;;;;;;;-8.07;84.62;102295.68;105780;1291;70863;-74
2022/12/18 03:51:33;;;;;;;17.30;9.30;;;;;;;-8.07;84.17;102296.19;105762;1287;71558;-74
2022/12/18 03:54:03;;;;;;;15.80;8.50;;;;;;;-8.07;83.99;102296.54;105712;1283;60446;-75
2022/12/18 03:56:35;;;;;;;14.30;8.40;;;;;;;-8.10;84.03;102296.73;105617;1294;60163;-75
2022/12/18 03:59:05;;;;;;;18.00;8.80;;;;;;;-8.11;83.81;102295.04;105651;1292;73510;-74
2022/12/18 04:01:38;;;;;;;14.70;8.60;;;;;;;-8.13;84.29;102298.65;105673;1296;68570;-74
2022/12/18 04:04:06;;;;;;;16.90;9.20;;;;;;;-8.13;83.77;102292.82;105663;1290;72824;-74
2022/12/18 04:06:35;;;;;;;15.10;8.30;;;;;;;-8.13;84.25;102291.97;105617;1291;62847;-74
2022/12/18 04:09:03;;;;;;;15.00;9.00;;;;;;;-8.13;84.31;102294.36;105625;1294;59642;-74
2022/12/18 04:11:30;;;;;;;16.90;8.90;;;;;;;-8.13;84.33;102297.27;105655;1297;76807;-74
2022/12/18 04:13:58;;;;;;;14.50;8.30;;;;;;;-8.11;84.41;102298.12;105625;1289;68899;-74
2022/12/18 04:16:25;;;;;;;15.10;8.30;;;;;;;-8.10;84.21;102303.94;105655;1286;73736;-74
2022/12/18 04:18:53;;;;;;;14.40;8.40;;;;;;;-8.08;84.02;102309.24;105727;1292;60457;-74
2022/12/18 04:21:20;;;;;;;14.90;8.10;;;;;;;-8.07;83.89;102306.83;105652;1296;59509;-74
2022/12/18 04:23:46;;;;;;;14.70;8.40;;;;;;;-8.06;83.65;102310.77;105800;1298;72203;-74
2022/12/18 04:26:13;;;;;;;14.70;8.50;;;;;;;-8.07;84.03;102310.27;105812;1291;58901;-74
2022/12/18 04:28:39;;;;;;;14.50;8.20;;;;;;;-8.08;83.59;102309.24;105723;1285;59339;-74
2022/12/18 04:31:06;;;;;;;15.20;8.90;;;;;;;-8.09;83.45;102308.41;105753;1291;59386;-74
2022/12/18 04:33:32;;;;;;;12.50;7.80;;;;;;;-8.10;83.76;102301.38;105684;1291;59494;-74
2022/12/18 04:35:59;;;;;;;13.40;8.50;;;;;;;-8.12;83.65;102297.61;105762;1283;59036;-74
2022/12/18 04:38:25;;;;;;;14.80;8.10;;;;;;;-8.13;83.50;102300.55;105806;1289;59128;-74
2022/12/18 04:40:52;;;;;;;14.80;8.40;;;;;;;-8.15;83.40;102301.59;105674;1292;59090;-74
2022/12/18 04:43:18;;;;;;;14.20;8.20;;;;;;;-8.16;83.36;102299.20;105726;1289;59456;-75
2022/12/18 04:45:45;;;;;;;16.20;8.50;;;;;;;-8.18;83.31;102296.81;105782;1291;58940;-74
2022/12/18 04:48:11;;;;;;;14.20;8.50;;;;;;;-8.22;83.52;102289.81;105729;1285;59159;-74
2022/12/18 04:50:38;;;;;;;13.00;8.10;;;;;;;-8.24;83.25;102292.58;105684;1294;71952;-74
2022/12/18 04:53:06;;;;;;;13.40;7.90;;;;;;;-8.26;83.43;102295.17;105723;1294;72692;-74
2022/12/18 04:55:32;;;;;;;14.10;8.10;;;;;;;-8.29;83.42;102296.40;105656;1294;58935;-74
2022/12/18 04:57:59;;;;;;;14.20;8.10;;;;;;;-8.30;83.53;102294.36;105754;1280;59319;-74
2022/12/18 05:00:25;;;;;;;14.70;8.00;;;;;;;-8.31;83.60;102292.47;105646;1284;59236;-74
2022/12/18 05:02:52;;;;;;;13.70;8.20;;;;;;;-8.31;83.66;102291.96;105577;1294;69087;-74
2022/12/18 05:05:19;;;;;;;13.80;8.10;;;;;;;-8.31;83.54;102290.58;105770;1283;71830;-74
2022/12/18 05:07:45;;;;;;;14.70;8.10;;;;;;;-8.32;83.68;102296.78;105784;1283;59767;-74
2022/12/18 05:10:12;;;;;;;13.40;8.00;;;;;;;-8.30;83.75;102297.79;105784;1298;59110;-74
2022/12/18 05:12:57;;;;;;;12.30;7.50;;;;;;;-8.31;83.61;102301.56;105654;1292;59101;-74
2022/12/18 05:15:30;;;;;;;13.20;7.50;;;;;;;-8.32;83.38;102303.98;105670;1291;69778;-75
2022/12/18 05:17:57;;;;;;;13.70;6.70;;;;;;;-8.34;83.35;102304.02;105688;1292;72126;-74
2022/12/18 05:20:25;;;;;;;12.10;7.00;;;;;;;-8.35;83.34;102298.17;105757;1291;60271;-74
2022/12/18 05:22:52;;;;;;;14.50;7.80;;;;;;;-8.36;83.63;102301.29;105788;1292;59077;-74
2022/12/18 05:25:19;;;;;;;12.80;7.00;;;;;;;-8.36;83.69;102300.42;105653;1290;74490;-74
2022/12/18 05:27:46;;;;;;;14.50;7.00;;;;;;;-8.36;84.05;102300.59;105663;1292;71535;-74
2022/12/18 05:30:14;;;;;;;12.90;7.40;;;;;;;-8.35;83.90;102302.30;105652;1294;70315;-74
2022/12/18 05:32:41;;;;;;;14.00;7.00;;;;;;;-8.33;83.92;102305.38;105642;1291;60704;-74
2022/12/18 05:35:09;;;;;;;15.00;7.30;;;;;;;-8.30;83.89;102307.74;105671;1290;61082;-74
2022/12/18 05:37:36;;;;;;;11.30;7.10;;;;;;;-8.29;84.02;102313.90;105628;1292;74650;-74
2022/12/18 05:40:09;;;;;;;13.70;7.50;;;;;;;-8.29;83.77;102323.84;105741;1283;70182;-74
2022/12/18 05:42:35;;;;;;;11.80;7.10;;;;;;;-8.29;83.62;102328.15;105787;1291;71797;-74
2022/12/18 05:45:02;;;;;;;12.40;6.70;;;;;;;-8.28;83.34;102327.11;105803;1291;59390;-74
2022/12/18 05:47:28;;;;;;;11.20;6.60;;;;;;;-8.29;83.14;102323.52;105793;1290;59185;-74
2022/12/18 05:49:55;;;;;;;12.10;6.50;;;;;;;-8.31;83.05;102328.67;105689;1295;74333;-74
2022/12/18 05:52:21;;;;;;;13.40;6.60;;;;;;;-8.33;83.00;102335.57;105816;1289;59301;-74
2022/12/18 05:54:48;;;;;;;13.10;6.90;;;;;;;-8.35;83.01;102338.34;105643;1290;58407;-74
2022/12/18 05:57:14;;;;;;;11.60;7.00;;;;;;;-8.38;83.05;102337.33;105643;1284;58999;-74
2022/12/18 05:59:41;;;;;;;11.60;6.70;;;;;;;-8.39;82.88;102343.00;105829;1292;59197;-74
2022/12/18 06:02:07;;;;;;;12.20;7.30;;;;;;;-8.41;82.99;102349.91;105752;1289;60177;-74
2022/12/18 06:04:34;;;;;;;11.60;6.80;;;;;;;-8.43;82.82;102362.44;105812;1285;59761;-74
2022/12/18 06:07:03;;;;;;;12.80;6.50;;;;;;;-8.45;82.71;102362.64;105710;1281;59560;-74
2022/12/18 06:09:30;;;;;;;13.70;7.60;;;;;;;-8.46;82.78;102354.92;105594;1289;61665;-74
2022/12/18 06:11:56;;;;;;;11.80;7.30;;;;;;;-8.48;82.93;102353.39;105819;1292;59275;-74
2022/12/18 06:14:23;;;;;;;13.00;7.90;;;;;;;-8.50;82.68;102349.30;105760;1289;59367;-74
2022/12/18 06:16:51;;;;;;;16.00;8.70;;;;;;;-8.52;82.26;102346.05;105685;1290;58942;-74
2022/12/18 06:19:17;;;;;;;13.60;8.00;;;;;;;-8.55;82.53;102346.25;105657;1297;71141;-74
2022/12/18 06:21:44;;;;;;;12.90;7.60;;;;;;;-8.56;82.69;102347.46;105780;1291;59132;-74
2022/12/18 06:24:10;;;;;;;12.60;6.60;;;;;;;-8.58;82.80;102347.30;105773;1290;59049;-74
2022/12/18 06:26:38;;;;;;;9.90;6.30;;;;;;;-8.60;82.53;102347.67;105765;1292;59259;-74
2022/12/18 06:29:05;;;;;;;12.90;7.30;;;;;;;-8.63;82.49;102344.95;105816;1287;71710;-75
2022/12/18 06:31:32;;;;;;;10.70;6.40;;;;;;;-8.64;82.52;102348.20;105558;1295;70646;-74
2022/12/18 06:34:02;;;;;;;11.50;6.50;;;;;;;-8.65;82.57;102347.87;105686;1292;60446;-74
2022/12/18 06:36:29;;;;;;;13.50;7.40;;;;;;;-8.67;82.59;102339.65;105658;1290;61055;-75
2022/12/18 06:38:56;;;;;;;14.40;7.10;;;;;;;-8.69;82.28;102334.35;105864;1292;74461;-74
2022/12/18 06:41:22;;;;;;;11.70;7.00;;;;;;;-8.71;82.72;102339.84;105582;1292;69593;-74
2022/12/18 06:43:49;;;;;;;12.60;7.40;;;;;;;-8.73;82.43;102339.01;105794;1292;59132;-74
2022/12/18 06:46:15;;;;;;;13.30;7.70;;;;;;;-8.74;82.67;102338.16;105576;1295;59415;-74
2022/12/18 06:48:42;;;;;;;12.60;7.30;;;;;;;-8.74;82.69;102344.15;105795;1291;59106;-74
2022/12/18 06:51:08;;;;;;;11.50;6.40;;;;;;;-8.74;82.62;102348.63;105600;1288;59041;-74
2022/12/18 06:53:34;;;;;;;12.30;6.70;;;;;;;-8.76;82.47;102348.46;105732;1290;59267;-74
2022/12/18 06:56:02;;;;;;;12.10;6.40;;;;;;;-8.79;82.75;102352.77;105745;1292;59017;-74
2022/12/18 06:58:35;;;;;;;10.70;6.50;;;;;;;-8.81;82.68;102351.41;105738;1291;61944;-74
2022/12/18 07:01:04;;;;;;;10.40;5.90;;;;;;;-8.83;82.91;102355.70;105592;1293;59192;-74
2022/12/18 07:03:31;;;;;;;12.60;7.70;;;;;;;-8.84;83.24;102350.40;105718;1297;76205;-74
2022/12/18 07:05:57;;;;;;;17.60;6.30;;;;;;;-8.83;83.31;102354.33;105806;1291;69722;-74
2022/12/18 07:08:24;;;;;;;12.40;6.70;;;;;;;-8.81;83.61;102359.65;105778;1289;59393;-74
2022/12/18 07:10:51;;;;;;;14.10;6.90;;;;;;;-8.78;83.47;102360.31;105638;1292;61240;-74
2022/12/18 07:13:22;;;;;;;11.50;6.50;;;;;;;-8.77;83.48;102359.11;105651;1295;60175;-74
2022/12/18 07:15:48;;;;;;;11.30;6.50;;;;;;;-8.74;83.67;102359.25;105729;1292;74865;-74
2022/12/18 07:18:15;;;;;;;11.50;6.50;;;;;;;-8.70;83.61;102368.14;105783;1285;59008;-74
2022/12/18 07:20:41;;;;;;;12.60;6.60;;;;;;;-8.67;83.79;102371.56;105592;1292;72536;-75
2022/12/18 07:23:08;;;;;;;12.70;6.70;;;;;;;-8.65;83.70;102373.60;105689;1292;59763;-74
2022/12/18 07:25:35;;;;;;;10.10;6.10;;;;;;;-8.63;83.45;102378.55;105809;1289;59459;-74
2022/12/18 07:28:02;;;;;;;9.10;6.20;;;;;;;-8.58;83.95;102386.91;105813;1289;74443;-74
2022/12/18 07:30:28;;;;;;;12.50;7.00;;;;;;;-8.53;83.52;102393.58;105717;1292;68955;-74
2022/12/18 07:32:55;;;;;;;12.80;7.60;;;;;;;-8.51;83.67;102398.03;105792;1292;72656;-74
2022/12/18 07:35:21;;;;;;;13.20;7.00;;;;;;;-8.48;83.48;102394.23;105822;1293;59331;-74
2022/12/18 07:37:51;;;;;;;11.00;6.60;;;;;;;-8.46;83.43;102389.23;105729;1294;59160;-74
2022/12/18 07:40:17;;;;;;;11.10;6.30;;;;;;;-8.43;83.56;102389.05;105753;1288;73516;-74
2022/12/18 07:42:43;;;;;;;12.60;7.00;;;;;;;-8.39;83.74;102391.56;105727;1285;58962;-74
2022/12/18 07:45:10;;;;;;;22.30;12.00;;;;;;;-8.33;83.80;102396.14;105715;1289;59033;-74
2022/12/18 07:47:37;;;;;;;20.70;10.70;;;;;;;-8.27;83.95;102404.84;105668;1288;59646;-74
2022/12/18 07:50:05;;;;;;;15.80;8.40;;;;;;;-8.21;83.87;102410.81;105759;1291;58929;-74
2022/12/18 07:52:31;;;;;;;12.60;7.60;;;;;;;-8.15;83.86;102416.26;105598;1292;74025;-74
2022/12/18 07:54:58;;;;;;;15.30;7.70;;;;;;;-8.10;83.78;102418.09;105810;1292;69879;-74
2022/12/18 07:57:25;;;;;;;11.60;7.30;;;;;;;-8.05;83.51;102417.02;105795;1291;58891;-74
2022/12/18 08:00:12;;;;;;;12.20;7.50;;;;;;;-8.00;83.62;102407.70;105656;1296;60524;-74
2022/12/18 08:02:38;;;;;;;12.70;7.70;;;;;;;-7.96;83.43;102405.79;105710;1292;58921;-74
2022/12/18 08:05:05;;;;;;;11.50;7.00;;;;;;;-7.93;83.40;102398.88;105788;1288;74034;-74
2022/12/18 08:07:32;;;;;;;12.30;6.90;;;;;;;-7.92;83.27;102390.98;105644;1295;70256;-74
2022/12/18 08:09:58;;;;;;;16.00;7.00;;;;;;;-7.90;83.06;102386.50;105662;1292;59588;-74
2022/12/18 08:12:25;;;;;;;11.00;7.10;;;;;;;-7.88;82.97;102385.09;105766;1290;58971;-74
2022/12/18 08:14:51;;;;;;;13.60;7.90;;;;;;;-7.85;82.75;102384.38;105784;1291;58865;-74
2022/12/18 08:17:19;;;;;;;12.40;7.60;;;;;;;-7.82;83.32;102382.64;105805;1290;58860;-74
2022/12/18 08:19:46;;;;;;;11.90;7.30;;;;;;;-7.76;83.34;102379.85;105639;1294;71439;-74
2022/12/18 08:22:12;;;;;;;13.40;8.60;;;;;;;-7.72;83.08;102380.13;105706;1284;58906;-74
2022/12/18 08:24:39;;;;;;;15.70;8.70;;;;;;;-7.67;82.76;102377.50;105787;1289;59374;-74
2022/12/18 08:27:05;;;;;;;14.50;8.70;;;;;;;-7.63;83.02;102370.93;105664;1290;59023;-75
2022/12/18 08:29:52;;;;;;;15.00;9.00;;;;;;;-7.57;83.07;102366.05;105766;1291;74304;-75
2022/12/18 08:32:18;;;;;;;16.70;8.70;;;;;;;-7.50;82.78;102368.38;105799;1291;58874;-75
2022/12/18 08:34:45;;;;;;;13.00;8.80;;;;;;;-7.44;82.76;102369.52;105679;1290;72153;-75
2022/12/18 08:37:11;;;;;;;14.90;9.20;;;;;;;-7.39;82.73;102372.52;105803;1290;58973;-75
2022/12/18 08:39:38;;;;;;;16.60;8.90;;;;;;;-7.32;82.60;102372.45;105669;1286;59148;-75
2022/12/18 08:44:49;;;;;;;15.10;9.60;;;;;;;-7.15;82.65;102376.88;105738;1290;70168;-75
2022/12/18 08:47:16;;;;;;;15.50;9.80;;;;;;;-7.08;82.34;102366.48;105652;1292;59232;-75
2022/12/18 08:49:42;;;;;;;15.10;9.50;;;;;;;-7.03;82.02;102359.19;105717;1289;59391;-75
2022/12/18 08:52:09;;;;;;;13.20;8.80;;;;;;;-6.97;82.25;102361.51;105674;1292;58896;-75
2022/12/18 08:54:35;;;;;;;15.10;8.40;;;;;;;-6.90;82.22;102351.95;105579;1293;59404;-75
2022/12/18 08:57:02;;;;;;;13.00;8.50;;;;;;;-6.81;82.33;102357.16;105683;1294;59314;-75
2022/12/18 08:59:28;;;;;;;14.30;8.00;;;;;;;-6.72;82.39;102356.67;105764;1290;58926;-75
2022/12/18 09:01:55;;;;;;;13.30;8.60;;;;;;;-6.63;82.47;102356.70;105651;1291;59023;-75
2022/12/18 09:04:22;;;;;;;12.50;8.30;;;;;;;-6.51;82.64;102361.69;105652;1285;60484;-74
2022/12/18 09:06:48;;;;;;;14.20;8.60;;;;;;;-6.41;82.29;102360.67;105731;1290;73390;-75
2022/12/18 09:09:16;;;;;;;13.50;8.20;;;;;;;-6.31;82.41;102357.59;105739;1289;69335;-75
2022/12/18 09:11:43;;;;;;;14.30;8.10;;;;;;;-6.20;82.46;102355.85;105739;1283;70242;-75
2022/12/18 09:14:10;;;;;;;13.50;7.50;;;;;;;-6.08;82.32;102355.30;105799;1283;59088;-75
2022/12/18 09:16:36;;;;;;;12.70;7.80;;;;;;;-5.96;82.44;102357.48;105598;1291;60297;-75
2022/12/18 09:19:05;;;;;;;12.50;7.10;;;;;;;-5.86;82.39;102355.56;105659;1289;73687;-75
2022/12/18 09:21:34;;;;;;;12.50;7.50;;;;;;;-5.75;82.32;102349.83;105553;1290;72228;-75
2022/12/18 09:24:03;;;;;;;11.80;7.50;;;;;;;-5.64;82.18;102340.14;105689;1294;72862;-75
2022/12/18 09:26:34;;;;;;;12.00;8.00;;;;;;;-5.52;82.25;102337.15;105711;1283;60144;-75
2022/12/18 09:29:00;;;;;;;13.80;8.70;;;;;;;-5.41;82.13;102336.91;105726;1290;59035;-75
2022/12/18 09:31:26;;;;;;;17.90;8.30;;;;;;;-5.30;82.10;102334.44;105792;1283;58759;-75
2022/12/18 09:33:55;;;;;;;10.80;7.30;;;;;;;-5.19;82.03;102337.16;105676;1286;58917;-75
2022/12/18 09:36:21;;;;;;;11.90;7.50;;;;;;;-5.08;81.96;102338.80;105646;1289;72466;-75
2022/12/18 09:38:48;;;;;;;14.50;8.20;;;;;;;-4.93;82.08;102343.13;105747;1290;59315;-75
2022/12/18 09:41:19;;;;;;;13.80;8.30;;;;;;;-4.77;81.95;102343.30;105716;1288;58981;-75
2022/12/18 09:43:51;;;;;;;15.00;8.10;;;;;;;-4.62;81.74;102342.59;105780;1285;73428;-75
2022/12/18 09:46:32;;;;;;;13.80;8.10;;;;;;;-4.48;81.49;102342.42;105688;1289;70768;-75
2022/12/18 09:49:03;;;;;;;14.30;8.30;;;;;;;-4.29;81.68;102341.27;105710;1292;72666;-75
2022/12/18 09:51:39;;;;;;;13.50;7.90;;;;;;;-4.09;81.50;102341.79;105653;1284;60504;-75
2022/12/18 09:54:24;;;;;;;12.80;7.80;;;;;;;-3.88;81.49;102344.36;105629;1292;60130;-75
2022/12/18 09:56:51;;;;;;;13.50;7.90;;;;;;;-3.66;81.15;102349.80;105691;1284;73867;-75
2022/12/18 09:59:26;;;;;;;12.80;8.00;;;;;;;-3.48;80.33;102353.63;105770;1292;69667;-76
2022/12/18 10:01:53;;;;;;;11.90;7.50;;;;;;;-3.39;79.08;102356.15;105717;1290;72755;-76
2022/12/18 10:04:20;;;;;;;15.20;8.10;;;;;;;-3.35;77.82;102366.38;105778;1289;61295;-76
2022/12/18 10:07:21;;;;;;;12.50;7.90;;;;;;;-3.29;77.46;102361.20;105701;1284;60550;-76
2022/12/18 10:10:19;;;;;;;13.40;8.00;;;;;;;-3.18;77.45;102359.16;105623;1284;74507;-76
2022/12/18 10:13:07;;;;;;;12.60;8.30;;;;;;;-3.07;77.60;102354.69;105531;1292;70140;-76
2022/12/18 10:15:47;;;;;;;12.70;8.10;;;;;;;-2.93;77.58;102353.20;105580;1292;71164;-76
2022/12/18 10:18:21;;;;;;;12.80;8.10;;;;;;;-2.73;78.03;102359.86;105674;1292;61501;-76
2022/12/18 10:21:02;;;;;;;12.20;7.90;;;;;;;-2.52;77.88;102369.05;105632;1284;59720;-76
2022/12/18 10:23:43;;;;;;;12.50;7.40;;;;;;;-2.30;77.59;102370.98;105698;1294;74486;-76
2022/12/18 10:26:14;;;;;;;11.70;7.70;;;;;;;-2.09;77.32;102366.63;105699;1291;69937;-76
2022/12/18 10:28:41;;;;;;;10.20;7.30;;;;;;;-1.90;76.93;102362.70;105691;1289;71780;-77
2022/12/18 10:31:16;;;;;;;10.80;6.90;;;;;;;-1.77;75.92;102356.48;105579;1293;60779;-76
2022/12/18 10:33:43;;;;;;;10.00;7.10;;;;;;;-1.65;75.81;102349.50;105743;1285;60520;-76
2022/12/18 10:36:10;;;;;;;10.60;7.40;;;;;;;-1.52;75.73;102354.91;105679;1289;73144;-77
2022/12/18 10:38:37;;;;;;;9.70;6.60;;;;;;;-1.40;75.33;102352.58;105676;1286;70923;-76
2022/12/18 10:41:14;;;;;;;10.80;7.80;;;;;;;-1.31;75.07;102352.07;105549;1293;71797;-76
2022/12/18 10:43:40;;;;;;;11.20;7.30;;;;;;;-1.24;74.56;102350.94;105713;1292;61176;-76
2022/12/18 10:46:07;;;;;;;11.40;7.10;;;;;;;-1.20;74.15;102342.45;105714;1290;59282;-76
2022/12/18 10:48:47;;;;;;;14.00;8.30;;;;;;;-1.17;73.84;102341.99;105796;1289;58927;-77
2022/12/18 10:51:37;;;;;;;11.90;7.30;;;;;;;-1.07;73.89;102344.42;105801;1289;71321;-77
2022/12/18 10:54:12;;;;;;;10.90;7.10;;;;;;;-0.96;73.82;102344.98;105780;1291;72715;-76
2022/12/18 10:56:39;;;;;;;9.40;6.70;;;;;;;-0.83;73.72;102342.95;105673;1292;61025;-76
2022/12/18 10:59:09;;;;;;;11.80;8.00;;;;;;;-0.75;72.66;102346.63;105602;1290;60209;-76
2022/12/18 11:01:45;;;;;;;11.60;7.90;;;;;;;-0.71;72.33;102337.27;105655;1290;72894;-76
2022/12/18 11:04:17;;;;;;;12.80;8.70;;;;;;;-0.68;71.60;102336.07;105794;1290;69882;-77
2022/12/18 11:07:04;;;;;;;13.70;8.80;;;;;;;-0.68;71.21;102329.33;105670;1292;71079;-76
2022/12/18 11:09:33;;;;;;;13.90;9.00;;;;;;;-0.70;71.07;102320.70;105575;1292;59026;-77
2022/12/18 11:12:02;;;;;;;17.00;9.90;;;;;;;-0.67;70.95;102301.45;105628;1288;58939;-76
2022/12/18 11:14:33;;;;;;;16.90;11.30;;;;;;;-0.53;70.94;102294.96;105673;1290;73172;-76
2022/12/18 11:17:00;;;;;;;17.10;10.60;;;;;;;-0.39;71.00;102290.95;105557;1286;69547;-77
2022/12/18 11:19:54;;;;;;;19.00;10.90;;;;;;;-0.29;70.65;102302.15;105742;1283;72317;-77
2022/12/18 11:22:26;;;;;;;17.60;10.70;;;;;;;-0.12;70.54;102313.27;105771;1291;59489;-76
2022/12/18 11:25:05;;;;;;;17.30;10.40;;;;;;;0.10;70.33;102308.33;105688;1292;58952;-74
2022/12/18 11:27:55;;;;;;;16.00;10.20;;;;;;;0.39;69.32;102302.69;105764;1290;73991;-74